Time;durP1;ratioP1;P1;durP2;ratioP2;P2;SDS_P1;SDS_P2;PMS_P1;PMS_P2;Temp;Humidity;BMP_temperature;BMP_pressure;BME280_temperature;BME280_humidity;BME280_pressure;Samples;Min_cycle;Max_cycle;Signal;HPM_P1;HPM_P2
2023/09/22 00:00:03;;;;;;;;;0.00;0.00;;;;;17.92;66.18;99561.75;5085649;27;45431;-84
2023/09/22 00:02:28;;;;;;;;;1.00;0.00;;;;;17.93;66.32;99563.53;5086628;27;45457;-81
2023/09/22 00:04:54;;;;;;;;;2.00;0.00;;;;;17.92;66.26;99563.53;5076723;27;45653;-83
2023/09/22 00:07:20;;;;;;;;;1.00;0.00;;;;;17.99;65.82;99573.13;5084619;27;46129;-84
2023/09/22 00:09:45;;;;;;;;;0.00;0.00;;;;;17.97;66.33;99567.84;5087087;27;45332;-80
2023/09/22 00:12:11;;;;;;;;;0.33;0.00;;;;;17.95;66.00;99563.50;5087411;27;45453;-84
2023/09/22 00:14:37;;;;;;;;;0.67;0.00;;;;;17.84;66.00;99556.59;5084127;27;45433;-83
2023/09/22 00:17:03;;;;;;;;;0.67;0.00;;;;;17.86;66.03;99567.13;5085079;27;45477;-83
2023/09/22 00:19:28;;;;;;;;;0.00;0.00;;;;;17.82;66.39;99575.97;5085747;27;45338;-84
2023/09/22 00:21:57;;;;;;;;;0.00;0.00;;;;;17.77;66.36;99572.56;5079964;27;45477;-83
2023/09/22 00:24:22;;;;;;;;;2.00;1.00;;;;;17.71;66.34;99562.94;5070791;27;45436;-73
2023/09/22 00:26:48;;;;;;;;;0.67;0.00;;;;;17.67;66.02;99559.47;5086935;27;45422;-84
2023/09/22 00:29:14;;;;;;;;;2.00;0.00;;;;;17.68;66.36;99569.13;5083063;27;45552;-80
2023/09/22 00:31:40;;;;;;;;;1.00;0.67;;;;;17.65;66.45;99574.47;5084278;27;45542;-84
2023/09/22 00:34:06;;;;;;;;;0.67;0.00;;;;;17.60;66.31;99564.84;5082668;27;45439;-84
2023/09/22 00:36:33;;;;;;;;;0.67;0.00;;;;;17.50;66.33;99559.69;5086810;27;46518;-83
2023/09/22 00:38:58;;;;;;;;;1.00;1.00;;;;;17.46;66.50;99563.28;5071856;27;45427;-84
2023/09/22 00:41:25;;;;;;;;;1.00;0.00;;;;;17.49;66.10;99578.22;5071767;28;45476;-83
2023/09/22 00:43:50;;;;;;;;;0.00;0.00;;;;;17.50;66.19;99577.31;5059637;28;45574;-83
2023/09/22 00:46:23;;;;;;;;;1.00;1.00;;;;;17.48;65.97;99572.06;5056695;28;46138;-84
2023/09/22 00:48:50;;;;;;;;;1.67;1.00;;;;;17.47;65.85;99574.72;5066174;28;45357;-84
2023/09/22 00:51:19;;;;;;;;;0.00;0.00;;;;;17.44;65.79;99574.75;5076547;28;45394;-83
2023/09/22 00:53:47;;;;;;;;;1.00;1.00;;;;;17.40;65.76;99579.22;5058008;28;45404;-83
2023/09/22 00:56:18;;;;;;;;;1.00;0.67;;;;;17.41;65.79;99590.66;5067165;28;46232;-84
2023/09/22 00:58:43;;;;;;;;;1.00;0.00;;;;;17.41;65.72;99580.09;5060627;28;46269;-72
2023/09/22 01:01:09;;;;;;;;;1.00;0.00;;;;;17.41;65.86;99580.09;5074002;28;45499;-84
2023/09/22 01:03:35;;;;;;;;;1.00;0.00;;;;;17.44;66.03;99580.91;5059476;28;45543;-79
2023/09/22 01:06:00;;;;;;;;;2.00;0.00;;;;;17.42;65.56;99572.13;5066120;28;46350;-84
2023/09/22 01:08:26;;;;;;;;;1.00;1.00;;;;;17.41;65.65;99574.81;5059889;28;45406;-84
2023/09/22 01:10:51;;;;;;;;;1.00;0.00;;;;;17.40;65.44;99573.94;5060074;28;45324;-83
2023/09/22 01:13:17;;;;;;;;;4.00;0.00;;;;;17.38;65.17;99572.22;5064613;27;47235;-84
2023/09/22 01:15:43;;;;;;;;;0.00;0.00;;;;;17.35;65.33;99564.31;5070314;27;45353;-80
2023/09/22 01:18:10;;;;;;;;;1.00;0.00;;;;;17.25;65.04;99564.47;5072340;28;45400;-76
2023/09/22 01:20:45;;;;;;;;;1.00;0.00;;;;;17.30;64.93;99569.66;5077812;28;45272;-80
2023/09/22 01:23:12;;;;;;;;;1.00;1.00;;;;;17.24;64.86;99565.34;5059578;28;45466;-84
2023/09/22 01:25:42;;;;;;;;;1.00;1.00;;;;;17.27;64.79;99565.31;5069392;28;45494;-84
2023/09/22 01:28:08;;;;;;;;;1.00;0.00;;;;;17.19;64.71;99559.25;5064128;28;45550;-84
2023/09/22 01:30:34;;;;;;;;;1.00;1.00;;;;;17.26;64.41;99573.25;5041365;28;45570;-82
2023/09/22 01:33:03;;;;;;;;;1.00;1.00;;;;;17.27;64.57;99567.94;5059657;28;45568;-80
2023/09/22 01:35:32;;;;;;;;;1.67;1.00;;;;;17.24;64.61;99567.09;5059093;28;46134;-84
2023/09/22 01:38:25;;;;;;;;;1.00;0.33;;;;;17.23;64.79;99560.97;5053240;28;45419;-72
2023/09/22 01:40:51;;;;;;;;;1.00;0.67;;;;;17.24;64.65;99561.81;5045219;28;45489;-77
2023/09/22 01:43:17;;;;;;;;;1.00;1.00;;;;;17.20;64.55;99555.72;5070676;28;46006;-84
2023/09/22 01:45:43;;;;;;;;;1.67;0.00;;;;;17.22;64.59;99564.47;5078740;28;45442;-77
2023/09/22 01:48:09;;;;;;;;;1.00;1.00;;;;;17.22;64.56;99558.34;5058965;28;45595;-84
2023/09/22 01:50:40;;;;;;;;;0.33;0.00;;;;;17.26;64.25;99555.63;5059941;28;45496;-83
2023/09/22 01:53:09;;;;;;;;;1.00;1.00;;;;;17.28;64.23;99563.53;5077194;28;45541;-83
2023/09/22 01:55:38;;;;;;;;;0.33;0.00;;;;;17.32;64.00;99559.09;5076933;28;46219;-83
2023/09/22 01:58:04;;;;;;;;;1.00;0.00;;;;;17.20;64.26;99552.22;5060414;28;45844;-84
2023/09/22 02:00:31;;;;;;;;;2.00;1.00;;;;;17.18;64.11;99548.72;5061962;28;45541;-72
2023/09/22 02:02:57;;;;;;;;;0.33;0.00;;;;;17.17;64.33;99546.97;5059014;28;45350;-84
2023/09/22 02:05:23;;;;;;;;;1.00;0.00;;;;;17.21;64.23;99552.19;5047316;28;45536;-84
2023/09/22 02:07:49;;;;;;;;;2.00;0.33;;;;;17.20;64.00;99554.84;5065724;28;45574;-84
2023/09/22 02:10:15;;;;;;;;;2.33;0.00;;;;;17.20;63.91;99554.84;5073328;28;45407;-83
2023/09/22 02:12:43;;;;;;;;;1.67;0.00;;;;;17.19;63.77;99556.63;5059107;28;45687;-83
2023/09/22 02:15:10;;;;;;;;;1.00;0.00;;;;;17.16;63.74;99561.94;5073204;28;45469;-84
2023/09/22 02:17:40;;;;;;;;;1.00;0.00;;;;;17.13;63.73;99550.53;5094502;27;44750;-82
2023/09/22 02:20:22;;;;;;;;;0.67;0.67;;;;;17.11;63.70;99545.28;5095358;28;45343;-74
2023/09/22 02:22:49;;;;;;;;;0.67;0.00;;;;;17.13;63.50;99556.72;5094592;28;45500;-78
2023/09/22 02:25:19;;;;;;;;;1.67;1.67;;;;;17.15;63.12;99564.56;5083467;28;45245;-82
2023/09/22 02:27:49;;;;;;;;;0.00;0.00;;;;;17.14;63.06;99566.34;5075222;28;45484;-72
2023/09/22 02:30:16;;;;;;;;;1.00;0.67;;;;;17.06;63.35;99552.38;5072168;28;45221;-72
2023/09/22 02:32:54;;;;;;;;;2.00;0.00;;;;;17.10;63.01;99562.00;5081858;28;45279;-72
2023/09/22 02:35:23;;;;;;;;;1.00;0.00;;;;;16.99;63.03;99548.97;5092786;28;45381;-77
2023/09/22 02:37:49;;;;;;;;;0.00;0.00;;;;;17.04;63.10;99554.16;5075140;28;45288;-83
2023/09/22 02:40:18;;;;;;;;;1.00;1.00;;;;;17.01;63.06;99559.47;5039839;28;45415;-77
2023/09/22 02:42:44;;;;;;;;;1.00;0.00;;;;;16.97;63.09;99553.38;5057795;28;45382;-83
2023/09/22 02:45:10;;;;;;;;;1.33;0.00;;;;;16.92;63.04;99554.31;5063800;27;46560;-84
2023/09/22 02:47:40;;;;;;;;;1.00;1.00;;;;;16.89;62.81;99544.66;5065814;28;45234;-83
2023/09/22 02:50:10;;;;;;;;;0.00;0.00;;;;;16.90;62.85;99554.34;5057154;28;46057;-73
2023/09/22 02:52:38;;;;;;;;;0.00;0.00;;;;;16.79;62.82;99540.34;5028994;28;1392769;-84
2023/09/22 02:55:07;;;;;;;;;0.33;0.00;;;;;16.82;62.83;99553.56;5065626;28;46296;-77
2023/09/22 02:57:34;;;;;;;;;0.00;0.00;;;;;16.73;62.73;99541.28;5060674;28;44871;-80
2023/09/22 03:00:00;;;;;;;;;0.00;0.00;;;;;16.76;62.92;99551.81;5076313;28;44787;-84
2023/09/22 03:02:26;;;;;;;;;2.00;0.33;;;;;16.71;62.72;99540.44;5040924;28;45384;-83
2023/09/22 03:04:51;;;;;;;;;1.00;0.00;;;;;16.59;62.90;99528.28;5062261;28;45897;-84
2023/09/22 03:07:17;;;;;;;;;0.00;0.00;;;;;16.66;62.62;99550.19;5060489;28;45537;-83
2023/09/22 03:09:43;;;;;;;;;0.00;0.00;;;;;16.57;62.41;99534.44;5079069;28;45296;-76
2023/09/22 03:12:08;;;;;;;;;1.00;0.00;;;;;16.63;62.38;99550.19;5077247;28;45398;-84
2023/09/22 03:14:34;;;;;;;;;1.67;0.33;;;;;16.50;62.22;99529.25;5056577;28;45450;-83
2023/09/22 03:17:00;;;;;;;;;1.00;0.00;;;;;16.60;62.00;99542.34;5058497;28;45470;-83
2023/09/22 03:19:26;;;;;;;;;0.00;0.00;;;;;16.58;62.20;99541.47;5040573;28;45495;-84
2023/09/22 03:21:51;;;;;;;;;0.00;0.00;;;;;16.58;61.83;99537.06;5066338;28;45528;-83
2023/09/22 03:24:17;;;;;;;;;0.00;0.00;;;;;16.55;61.80;99542.34;5077756;28;45283;-81
2023/09/22 03:26:43;;;;;;;;;2.00;1.00;;;;;16.48;61.22;99533.66;5070253;28;45820;-77
2023/09/22 03:29:08;;;;;;;;;2.00;0.00;;;;;16.48;61.64;99533.66;5058424;28;45182;-83
2023/09/22 03:31:36;;;;;;;;;0.00;0.00;;;;;16.56;61.30;99544.13;5058645;28;45211;-83
2023/09/22 03:34:02;;;;;;;;;0.00;0.00;;;;;16.54;61.24;99540.63;5076948;28;46071;-77
2023/09/22 03:36:30;;;;;;;;;1.00;0.00;;;;;16.53;61.22;99545.91;5078448;28;45317;-83
2023/09/22 03:38:57;;;;;;;;;0.00;0.00;;;;;16.50;61.16;99550.31;5067431;28;45373;-83
2023/09/22 03:41:28;;;;;;;;;1.67;0.00;;;;;16.49;61.16;99551.22;5058388;28;45375;-83
2023/09/22 03:43:54;;;;;;;;;0.00;0.00;;;;;16.49;61.07;99548.59;5059066;28;45339;-74
2023/09/22 03:46:20;;;;;;;;;0.00;0.00;;;;;16.46;61.02;99556.53;5060004;28;45435;-71
2023/09/22 03:48:45;;;;;;;;;3.00;1.00;;;;;16.43;60.97;99551.31;5060022;28;45255;-82
2023/09/22 03:51:11;;;;;;;;;0.67;0.33;;;;;16.41;60.81;99561.00;5073123;28;45445;-79
2023/09/22 03:53:37;;;;;;;;;1.00;0.00;;;;;16.40;60.89;99559.22;5057567;28;46179;-83
2023/09/22 03:56:02;;;;;;;;;1.00;0.00;;;;;16.37;61.00;99556.59;5048784;28;45295;-72
2023/09/22 03:58:28;;;;;;;;;1.00;0.00;;;;;16.28;60.60;99541.75;5069930;28;45335;-83
2023/09/22 04:01:07;;;;;;;;;1.00;1.00;;;;;16.25;60.76;99536.53;5057101;28;45612;-72
2023/09/22 04:03:32;;;;;;;;;0.00;0.00;;;;;16.35;60.62;99553.09;5044100;28;46223;-73
2023/09/22 04:05:58;;;;;;;;;0.00;0.00;;;;;16.36;60.25;99560.13;5057033;28;45663;-75
2023/09/22 04:08:24;;;;;;;;;1.00;1.00;;;;;16.33;60.46;99551.38;5072517;28;45489;-73
2023/09/22 04:10:50;;;;;;;;;0.67;0.67;;;;;16.30;60.35;99549.66;5057955;28;45333;-73
2023/09/22 04:13:16;;;;;;;;;0.00;0.00;;;;;16.22;60.50;99541.81;5057123;28;45994;-72
2023/09/22 04:15:41;;;;;;;;;1.00;0.00;;;;;16.22;60.61;99549.72;5056990;28;45240;-83
2023/09/22 04:18:08;;;;;;;;;0.00;0.00;;;;;16.22;60.90;99557.63;5057269;28;45339;-77
2023/09/22 04:20:37;;;;;;;;;0.00;0.00;;;;;16.20;60.89;99554.13;5073427;28;45363;-83
2023/09/22 04:23:04;;;;;;;;;0.00;0.00;;;;;16.15;60.80;99544.53;5057292;28;45319;-83
2023/09/22 04:25:34;;;;;;;;;1.00;0.33;;;;;16.18;60.84;99542.75;5069039;28;45347;-83
2023/09/22 04:28:11;;;;;;;;;0.33;0.33;;;;;16.07;60.81;99542.81;5059791;28;45410;-72
2023/09/22 04:30:42;;;;;;;;;1.00;0.00;;;;;16.09;60.72;99555.97;5044792;28;45652;-72
2023/09/22 04:33:10;;;;;;;;;0.00;0.00;;;;;16.06;60.71;99551.63;5066027;28;46066;-73
2023/09/22 04:35:37;;;;;;;;;0.00;0.00;;;;;16.04;60.64;99556.03;5071618;28;45560;-83
2023/09/22 04:38:04;;;;;;;;;0.00;0.00;;;;;16.02;60.65;99560.44;5059933;28;45499;-71
2023/09/22 04:40:36;;;;;;;;;2.00;0.00;;;;;16.02;60.76;99559.56;5070221;28;45397;-84
2023/09/22 04:43:03;;;;;;;;;0.67;0.67;;;;;16.02;60.94;99562.19;5060444;28;45551;-74
2023/09/22 04:45:29;;;;;;;;;0.00;0.00;;;;;15.96;61.20;99562.25;5060469;28;45525;-75
2023/09/22 04:47:56;;;;;;;;;0.00;0.00;;;;;15.94;60.80;99559.63;5057652;28;45533;-84
2023/09/22 04:50:22;;;;;;;;;0.00;0.00;;;;;15.90;60.72;99560.53;5074637;28;45326;-72
2023/09/22 04:52:49;;;;;;;;;0.00;0.00;;;;;15.96;60.48;99551.72;5074967;28;46088;-72
2023/09/22 04:55:20;;;;;;;;;1.00;1.00;;;;;15.91;60.75;99551.72;5075947;28;45385;-76
2023/09/22 04:57:46;;;;;;;;;2.00;1.00;;;;;15.89;60.56;99543.84;5060625;28;45541;-83
2023/09/22 05:00:16;;;;;;;;;1.00;0.00;;;;;15.88;60.60;99534.22;5057307;28;45564;-83
2023/09/22 05:02:45;;;;;;;;;1.00;0.00;;;;;15.91;60.19;99546.47;5078421;28;45502;-83
2023/09/22 05:05:11;;;;;;;;;0.67;0.00;;;;;15.96;60.76;99557.00;5076097;28;45392;-83
2023/09/22 05:07:37;;;;;;;;;1.33;1.00;;;;;15.94;60.21;99562.25;5078161;28;45442;-83
2023/09/22 05:10:04;;;;;;;;;1.00;0.33;;;;;15.90;60.33;99560.53;5055860;28;45596;-83
2023/09/22 05:12:30;;;;;;;;;2.00;1.67;;;;;15.90;60.32;99571.94;5057775;28;46291;-83
2023/09/22 05:14:58;;;;;;;;;1.00;1.00;;;;;15.91;60.11;99570.16;5057156;28;45676;-72
2023/09/22 05:17:24;;;;;;;;;1.00;1.00;;;;;15.83;59.54;99559.69;5064428;28;45501;-84
2023/09/22 05:19:50;;;;;;;;;0.00;0.00;;;;;15.89;59.66;99567.53;5056721;28;45517;-83
2023/09/22 05:22:17;;;;;;;;;0.00;0.00;;;;;15.96;59.23;99584.19;5038427;28;45717;-83
2023/09/22 05:24:44;;;;;;;;;1.00;0.00;;;;;15.97;59.41;99588.56;5040520;28;45822;-81
2023/09/22 05:27:10;;;;;;;;;0.33;0.33;;;;;15.98;59.29;99602.63;5066840;28;45557;-73
2023/09/22 05:29:36;;;;;;;;;0.33;0.00;;;;;15.88;59.77;99586.88;5075886;28;45484;-83
2023/09/22 05:32:01;;;;;;;;;0.50;0.00;;;;;15.91;59.92;99602.63;5065145;28;45477;-83
2023/09/22 05:34:28;;;;;;;;;0.00;0.00;;;;;15.91;60.01;99610.53;5055662;28;45177;-73
2023/09/22 05:36:53;;;;;;;;;0.00;0.00;;;;;15.93;60.15;99613.19;5057855;28;45318;-83
2023/09/22 05:39:19;;;;;;;;;0.00;0.00;;;;;15.98;60.39;99611.41;5054897;28;45486;-84
2023/09/22 05:41:48;;;;;;;;;0.00;0.00;;;;;16.01;60.21;99608.72;5056509;28;45649;-79
2023/09/22 05:44:16;;;;;;;;;0.00;0.00;;;;;16.06;60.14;99609.56;5064888;27;45368;-73
2023/09/22 05:46:42;;;;;;;;;1.00;0.00;;;;;16.18;60.24;99621.78;5056311;28;45508;-72
2023/09/22 05:49:08;;;;;;;;;0.00;0.00;;;;;16.12;60.61;99606.03;5066170;28;45539;-83
2023/09/22 05:51:34;;;;;;;;;1.00;1.00;;;;;16.20;60.35;99621.78;5070209;27;45625;-82
2023/09/22 05:54:00;;;;;;;;;0.00;0.00;;;;;16.24;60.05;99619.09;5081571;28;45429;-83
2023/09/22 05:56:25;;;;;;;;;0.00;0.00;;;;;16.31;60.19;99614.66;5070370;28;45391;-82
2023/09/22 05:58:51;;;;;;;;;0.67;0.00;;;;;16.36;60.04;99614.63;5041779;28;45624;-76
2023/09/22 06:01:17;;;;;;;;;0.00;0.00;;;;;16.42;59.55;99615.44;5075043;27;45981;-83
2023/09/22 06:03:47;;;;;;;;;0.00;0.00;;;;;16.46;59.93;99617.16;5079808;28;45298;-76
2023/09/22 06:06:15;;;;;;;;;1.00;0.33;;;;;16.57;59.24;99619.69;5065936;28;45525;-73
2023/09/22 06:08:45;;;;;;;;;0.00;0.00;;;;;16.62;59.66;99630.19;5062011;28;45630;-83
2023/09/22 06:11:11;;;;;;;;;1.67;0.00;;;;;16.69;59.94;99642.44;5054166;28;45682;-83
2023/09/22 06:13:38;;;;;;;;;1.00;0.00;;;;;16.79;60.48;99649.38;5079059;27;45434;-76
2023/09/22 06:16:05;;;;;;;;;0.00;0.00;;;;;16.87;60.51;99662.50;5058811;28;45503;-72
2023/09/22 06:18:31;;;;;;;;;0.00;0.00;;;;;16.92;60.19;99654.56;5078752;28;45463;-72
2023/09/22 06:20:59;;;;;;;;;1.00;0.00;;;;;16.96;60.10;99653.66;5081127;28;45904;-74
2023/09/22 06:23:27;;;;;;;;;0.00;0.00;;;;;17.01;60.15;99655.34;5065400;28;45447;-78
2023/09/22 06:25:54;;;;;;;;;1.00;1.00;;;;;17.02;59.38;99645.66;5077712;28;45582;-72
2023/09/22 06:28:20;;;;;;;;;1.00;0.00;;;;;17.17;59.02;99653.41;5075896;28;45644;-72
2023/09/22 06:30:47;;;;;;;;;0.00;0.00;;;;;17.32;58.45;99646.22;5078521;28;45382;-82
2023/09/22 06:33:16;;;;;;;;;1.00;0.00;;;;;17.42;57.86;99648.69;5072471;28;45821;-73
2023/09/22 06:35:43;;;;;;;;;0.00;0.00;;;;;17.41;57.94;99654.03;5074966;28;45511;-73
2023/09/22 06:38:10;;;;;;;;;0.00;0.00;;;;;17.49;57.13;99663.59;5061697;28;45466;-80
2023/09/22 06:40:36;;;;;;;;;0.00;0.00;;;;;17.47;57.65;99652.16;5070625;28;45227;-83
2023/09/22 06:43:04;;;;;;;;;0.00;0.00;;;;;17.58;57.64;99670.50;5060934;28;45872;-83
2023/09/22 06:45:35;;;;;;;;;0.00;0.00;;;;;17.67;56.92;99667.75;5058250;28;45382;-84
2023/09/22 06:48:05;;;;;;;;;0.00;0.00;;;;;17.77;56.54;99663.22;5073340;28;45677;-83
2023/09/22 06:50:34;;;;;;;;;0.67;0.00;;;;;17.86;56.34;99667.53;5055533;28;45588;-72
2023/09/22 06:52:59;;;;;;;;;1.00;0.00;;;;;17.80;56.29;99643.81;5073695;28;45541;-83
2023/09/22 06:55:25;;;;;;;;;0.00;0.00;;;;;18.03;55.75;99667.31;5059344;28;45395;-73
2023/09/22 06:57:52;;;;;;;;;0.67;0.00;;;;;18.17;55.46;99675.03;5043141;28;45228;-83
2023/09/22 07:00:22;;;;;;;;;1.00;0.00;;;;;18.32;54.91;99688.00;5050647;28;47774;-81
2023/09/22 07:02:48;;;;;;;;;0.67;0.00;;;;;18.53;54.49;99693.88;5075189;28;45611;-82
2023/09/22 07:05:15;;;;;;;;;0.00;0.00;;;;;18.95;54.17;99687.00;5065553;28;45365;-82
2023/09/22 07:07:42;;;;;;;;;0.00;0.00;;;;;19.10;53.07;99677.00;5058487;28;45224;-81
2023/09/22 07:10:13;;;;;;;;;0.33;0.33;;;;;21.18;48.92;99687.31;5072505;28;45352;-82
2023/09/22 07:12:39;;;;;;;;;0.00;0.00;;;;;22.75;46.12;99679.94;5058613;28;45716;-83
2023/09/22 07:15:06;;;;;;;;;0.00;0.00;;;;;22.80;46.47;99691.31;5057711;28;45493;-80
2023/09/22 07:17:33;;;;;;;;;0.00;0.00;;;;;23.87;42.93;99685.72;5039789;28;45218;-83
2023/09/22 07:20:00;;;;;;;;;0.00;0.00;;;;;24.70;41.95;99693.09;5039512;28;45411;-82
2023/09/22 07:22:30;;;;;;;;;0.00;0.00;;;;;25.00;41.87;99690.94;5052386;28;45608;-75
2023/09/22 07:24:56;;;;;;;;;0.00;0.00;;;;;24.48;43.85;99684.22;5041495;28;45312;-76
2023/09/22 07:27:23;;;;;;;;;0.33;0.00;;;;;24.14;42.81;99709.59;5058204;28;45577;-78
2023/09/22 07:29:50;;;;;;;;;0.00;0.00;;;;;23.82;43.24;99723.25;5057789;28;46104;-83
2023/09/22 07:32:19;;;;;;;;;1.00;0.33;;;;;23.44;44.59;99724.66;5039875;28;45417;-79
2023/09/22 07:34:45;;;;;;;;;0.00;0.00;;;;;23.12;45.05;99729.31;5057624;28;45588;-74
2023/09/22 07:37:12;;;;;;;;;0.00;0.00;;;;;23.08;45.14;99725.03;5061518;28;45468;-82
2023/09/22 07:39:40;;;;;;;;;0.00;0.00;;;;;22.98;45.34;99726.25;5067398;28;45370;-82
2023/09/22 07:42:07;;;;;;;;;0.00;0.00;;;;;22.92;45.15;99734.41;5059536;28;45426;-82
2023/09/22 07:44:33;;;;;;;;;0.00;0.00;;;;;22.92;45.94;99729.06;5074158;28;45593;-83
2023/09/22 07:47:00;;;;;;;;;0.00;0.00;;;;;23.04;44.85;99739.38;5075843;28;45397;-80
2023/09/22 07:49:28;;;;;;;;;1.00;0.00;;;;;23.23;43.29;99739.59;5075339;28;46224;-73
2023/09/22 07:51:55;;;;;;;;;0.67;0.00;;;;;23.42;44.17;99743.34;5071132;28;45368;-75
2023/09/22 07:54:21;;;;;;;;;0.00;0.00;;;;;23.69;43.76;99745.94;5055202;28;45935;-73
2023/09/22 07:56:47;;;;;;;;;1.00;0.00;;;;;23.68;43.59;99749.53;5076199;28;45838;-77
2023/09/22 07:59:14;;;;;;;;;0.00;0.00;;;;;23.76;43.55;99755.44;5057416;28;45444;-72
2023/09/22 08:01:44;;;;;;;;;0.00;0.00;;;;;23.61;43.70;99772.88;5071642;28;45675;-73
2023/09/22 08:04:11;;;;;;;;;0.00;0.00;;;;;23.47;44.62;99782.28;5070892;28;45393;-73
2023/09/22 08:06:37;;;;;;;;;0.33;0.00;;;;;23.36;44.55;99780.88;5075228;28;45539;-73
2023/09/22 08:09:06;;;;;;;;;0.00;0.00;;;;;23.15;45.38;99798.47;5074584;28;45451;-73
2023/09/22 08:11:33;;;;;;;;;0.00;0.00;;;;;23.15;46.33;99789.63;5054604;28;45417;-73
2023/09/22 08:13:59;;;;;;;;;1.00;1.00;;;;;22.95;46.37;99783.13;5066197;27;45413;-73
2023/09/22 08:16:26;;;;;;;;;2.00;1.67;;;;;22.91;47.13;99789.47;5057039;28;45438;-74
2023/09/22 08:18:53;;;;;;;;;0.00;0.00;;;;;22.75;46.48;99788.25;5072654;28;45543;-74
2023/09/22 08:21:25;;;;;;;;;4.00;4.00;;;;;22.55;47.11;99797.72;5061610;28;46203;-73
2023/09/22 08:23:51;;;;;;;;;0.00;0.00;;;;;22.42;47.41;99794.59;5037853;28;45484;-73
2023/09/22 08:26:18;;;;;;;;;0.00;0.00;;;;;22.31;46.73;99802.00;5055465;28;45543;-72
2023/09/22 08:28:44;;;;;;;;;0.00;0.00;;;;;22.12;47.20;99800.78;5048256;28;45674;-72
2023/09/22 08:31:11;;;;;;;;;0.00;0.00;;;;;22.02;47.69;99802.81;5054135;28;45670;-72
2023/09/22 08:33:38;;;;;;;;;1.00;1.00;;;;;21.82;48.62;99811.38;5063719;28;45446;-72
2023/09/22 08:36:03;;;;;;;;;15.00;12.75;;;;;;;;5068858;28;46169;-74
2023/09/22 08:38:31;;;;;;;;;0.00;0.00;;;;;21.94;49.26;99789.75;5070679;28;46136;-73
2023/09/22 08:40:59;;;;;;;;;0.00;0.00;;;;;22.98;48.37;99796.34;5071782;28;45759;-77
2023/09/22 08:43:26;;;;;;;;;0.00;0.00;;;;;25.04;45.23;99801.22;5074260;28;45501;-78
2023/09/22 08:45:51;;;;;;;;;1.00;0.00;;;;;27.27;40.29;99803.56;5074699;28;45485;-79
2023/09/22 08:48:17;;;;;;;;;0.67;0.33;;;;;27.98;38.69;99805.28;5074063;28;46180;-76
2023/09/22 08:50:44;;;;;;;;;0.00;0.00;;;;;27.83;39.53;99794.38;5075561;28;45353;-78
2023/09/22 08:53:11;;;;;;;;;0.00;0.00;;;;;27.29;40.04;99797.19;5066198;28;45440;-79
2023/09/22 08:55:39;;;;;;;;;0.00;0.00;;;;;26.94;42.18;99812.34;5068953;28;45450;-72
2023/09/22 08:58:05;;;;;;;;;0.00;0.00;;;;;26.77;41.40;99810.50;5061266;28;46967;-84
2023/09/22 09:00:31;;;;;;;;;0.00;0.00;;;;;26.45;41.66;99812.00;5082378;28;45408;-83
2023/09/22 09:03:06;;;;;;;;;2.00;1.00;;;;;26.26;42.66;99823.59;5083769;28;45685;-83
2023/09/22 09:05:33;;;;;;;;;0.67;0.00;;;;;25.88;42.64;99823.47;5065031;28;45397;-83
2023/09/22 09:08:12;;;;;;;;;0.67;0.00;;;;;25.48;42.61;99841.28;5061097;28;45952;-82
2023/09/22 09:10:40;;;;;;;;;1.00;0.00;;;;;25.09;44.13;99844.69;5077570;28;45543;-82
2023/09/22 09:13:07;;;;;;;;;0.00;0.00;;;;;24.72;44.59;99854.16;5055059;28;45519;-83
2023/09/22 09:15:47;;;;;;;;;0.00;0.00;;;;;24.28;45.73;99854.06;5051613;28;45548;-83
2023/09/22 09:18:21;;;;;;;;;1.00;0.00;;;;;23.86;45.34;99865.38;5078218;28;45514;-79
2023/09/22 09:21:04;;;;;;;;;0.67;0.00;;;;;23.65;46.01;99869.63;5060951;28;45561;-84
2023/09/22 09:23:30;;;;;;;;;0.00;0.00;;;;;23.37;46.47;99864.38;5082479;28;45596;-85
2023/09/22 09:25:56;;;;;;;;;1.00;0.00;;;;;23.41;45.56;99863.34;5068940;28;45394;-82
2023/09/22 09:28:23;;;;;;;;;0.33;0.00;;;;;23.37;45.41;99853.72;5076003;28;45861;-77
2023/09/22 09:30:51;;;;;;;;;0.00;0.00;;;;;23.70;45.39;99870.34;5059847;28;45498;-79
2023/09/22 09:33:20;;;;;;;;;0.00;0.00;;;;;23.80;44.00;99865.59;5077794;28;45501;-77
2023/09/22 09:35:47;;;;;;;;;2.00;2.00;;;;;23.99;44.55;99865.78;5078057;28;45502;-74
2023/09/22 09:38:14;;;;;;;;;1.67;0.00;;;;;24.08;44.10;99870.81;5049949;28;48022;-74
2023/09/22 09:40:39;;;;;;;;;0.00;0.00;;;;;24.06;44.09;99879.78;5046019;28;45811;-81
2023/09/22 09:43:10;;;;;;;;;1.33;1.00;;;;;23.66;44.18;99827.84;5083763;28;45247;-85
2023/09/22 09:45:43;;;;;;;;;1.33;1.33;;;;;24.16;43.41;99895.41;5059154;28;45578;-80
2023/09/22 09:48:13;;;;;;;;;2.00;0.00;;;;;24.11;43.85;99896.50;5059062;28;45488;-79
2023/09/22 09:50:41;;;;;;;;;0.00;0.00;;;;;24.07;44.47;99900.19;5076419;28;45488;-82
2023/09/22 09:53:21;;;;;;;;;2.00;1.00;;;;;23.82;44.91;99891.28;5075251;28;45462;-81
2023/09/22 09:55:49;;;;;;;;;1.00;0.33;;;;;23.76;44.55;99906.59;5072197;28;45505;-76
2023/09/22 09:58:16;;;;;;;;;1.00;1.00;;;;;23.25;45.07;99857.66;5074131;28;45417;-83
2023/09/22 10:00:43;;;;;;;;;0.00;0.00;;;;;23.47;46.33;99897.78;5077366;28;45322;-73
2023/09/22 10:03:12;;;;;;;;;0.00;0.00;;;;;23.52;45.75;99914.50;5057028;28;45504;-85
2023/09/22 10:05:39;;;;;;;;;3.33;2.00;;;;;23.62;45.68;99915.94;5057861;28;45371;-74
2023/09/22 10:08:07;;;;;;;;;1.00;0.00;;;;;23.69;45.97;99913.91;5075522;28;46157;-74
2023/09/22 10:10:37;;;;;;;;;0.00;0.00;;;;;23.73;45.79;99915.56;5077024;28;45556;-85
2023/09/22 10:13:03;;;;;;;;;1.00;1.00;;;;;23.80;46.98;99918.94;5071950;28;45761;-82
2023/09/22 10:15:52;;;;;;;;;0.00;0.00;;;;;23.82;46.13;99912.63;5060635;28;45523;-82
2023/09/22 10:18:18;;;;;;;;;1.00;1.00;;;;;23.61;46.03;99897.31;5067123;28;46325;-77
2023/09/22 10:20:46;;;;;;;;;0.33;0.00;;;;;23.55;45.93;99901.06;5065065;28;45693;-78
2023/09/22 10:23:17;;;;;;;;;1.00;0.00;;;;;23.33;47.17;99908.91;5057889;28;45386;-78
2023/09/22 10:26:03;;;;;;;;;2.00;1.00;;;;;23.15;47.24;99915.69;5063794;28;46103;-81
2023/09/22 10:28:29;;;;;;;;;3.00;3.00;;;;;23.01;48.41;99928.56;5076573;28;45636;-75
2023/09/22 10:30:57;;;;;;;;;0.00;0.00;;;;;22.90;47.65;99938.66;5060700;28;45307;-74
2023/09/22 10:33:23;;;;;;;;;2.33;1.00;;;;;22.74;48.88;99949.78;5073598;28;45458;-80
2023/09/22 10:35:49;;;;;;;;;1.00;1.00;;;;;22.60;49.07;99954.63;5057388;28;45952;-74
2023/09/22 10:38:15;;;;;;;;;4.00;3.00;;;;;22.40;49.88;99976.47;5072627;28;45609;-78
2023/09/22 10:41:07;;;;;;;;;1.00;1.00;;;;;22.24;50.90;99992.00;5070211;28;45648;-75
2023/09/22 10:43:36;;;;;;;;;1.00;0.67;;;;;21.79;52.10;99997.59;5073124;28;45432;-80
2023/09/22 10:46:02;;;;;;;;;1.33;1.00;;;;;21.19;54.04;99983.03;5077031;28;45565;-75
2023/09/22 10:48:45;;;;;;;;;3.33;3.00;;;;;20.86;55.18;99962.47;5088123;28;45259;-80
2023/09/22 10:51:10;;;;;;;;;2.00;1.33;;;;;21.01;55.55;100002.91;5080927;28;45438;-76
2023/09/22 10:53:39;;;;;;;;;2.67;2.00;;;;;20.95;54.61;100000.34;5077453;28;45509;-77
2023/09/22 10:56:05;;;;;;;;;2.00;1.33;;;;;20.92;55.91;100011.06;5078294;28;45469;-75
2023/09/22 10:58:31;;;;;;;;;3.00;2.00;;;;;20.83;56.43;100010.34;5076374;28;46100;-77
2023/09/22 11:01:05;;;;;;;;;5.67;4.00;;;;;20.70;57.22;100018.59;5075009;28;45533;-79
2023/09/22 11:03:33;;;;;;;;;3.00;3.00;;;;;20.62;55.69;100024.91;5077980;28;45817;-78
2023/09/22 11:06:00;;;;;;;;;2.00;2.00;;;;;20.56;57.24;100009.06;5075039;28;45524;-77
2023/09/22 11:08:26;;;;;;;;;4.33;2.67;;;;;20.65;56.96;100013.34;5076719;28;45703;-77
2023/09/22 11:10:55;;;;;;;;;1.33;1.33;;;;;20.73;56.59;100006.13;5077131;27;45661;-77
2023/09/22 11:13:23;;;;;;;;;3.67;3.67;;;;;20.85;56.76;100018.28;5077572;28;45530;-77
2023/09/22 11:15:50;;;;;;;;;1.67;1.67;;;;;20.90;56.86;100015.53;5058824;28;45441;-80
2023/09/22 11:18:33;;;;;;;;;1.00;0.67;;;;;20.94;56.91;100018.06;5058087;28;45493;-78
2023/09/22 11:21:09;;;;;;;;;1.33;0.67;;;;;20.95;56.74;100016.28;5057300;28;45521;-75
2023/09/22 11:23:40;;;;;;;;;2.00;2.00;;;;;20.94;56.78;100007.44;5054090;28;45556;-80
2023/09/22 11:26:09;;;;;;;;;2.00;1.33;;;;;20.94;56.46;100003.94;5058358;28;45529;-75
2023/09/22 11:28:38;;;;;;;;;0.33;0.00;;;;;20.99;55.78;99994.97;5057798;28;45531;-82
2023/09/22 11:31:14;;;;;;;;;1.00;0.67;;;;;21.30;55.52;99998.72;5058194;28;45519;-82
2023/09/22 11:33:41;;;;;;;;;3.00;1.00;;;;;21.52;55.95;99985.81;5040224;28;45864;-80
2023/09/22 11:36:08;;;;;;;;;3.67;1.00;;;;;21.69;54.98;99988.09;5062879;28;45503;-82